sensor_id;sensor_type;location;lat;lon;timestamp;P1;durP1;ratioP1;P2;durP2;ratioP2
39426;SDS011;25938;48.470;1.486;2022-08-18T00:00:31;1.00;;;0.90;;
39426;SDS011;25938;48.470;1.486;2022-08-18T00:03:04;1.35;;;1.05;;
39426;SDS011;25938;48.470;1.486;2022-08-18T00:05:31;2.00;;;1.00;;
39426;SDS011;25938;48.470;1.486;2022-08-18T00:07:57;1.90;;;0.80;;
39426;SDS011;25938;48.470;1.486;2022-08-18T00:10:24;1.10;;;1.00;;
39426;SDS011;25938;48.470;1.486;2022-08-18T00:12:50;1.10;;;0.68;;
39426;SDS011;25938;48.470;1.486;2022-08-18T00:15:16;0.90;;;0.70;;
39426;SDS011;25938;48.470;1.486;2022-08-18T00:17:43;1.75;;;1.58;;
39426;SDS011;25938;48.470;1.486;2022-08-18T00:20:10;0.73;;;0.70;;
39426;SDS011;25938;48.470;1.486;2022-08-18T00:22:37;1.27;;;0.90;;
39426;SDS011;25938;48.470;1.486;2022-08-18T00:25:08;1.45;;;0.82;;
39426;SDS011;25938;48.470;1.486;2022-08-18T00:27:35;1.10;;;1.00;;
39426;SDS011;25938;48.470;1.486;2022-08-18T00:30:03;1.05;;;1.00;;
39426;SDS011;25938;48.470;1.486;2022-08-18T00:32:31;2.47;;;1.00;;
39426;SDS011;25938;48.470;1.486;2022-08-18T00:35:02;1.20;;;1.10;;
39426;SDS011;25938;48.470;1.486;2022-08-18T00:37:29;1.10;;;0.93;;
39426;SDS011;25938;48.470;1.486;2022-08-18T00:39:55;1.10;;;1.00;;
39426;SDS011;25938;48.470;1.486;2022-08-18T00:42:22;1.65;;;1.00;;
39426;SDS011;25938;48.470;1.486;2022-08-18T00:44:49;1.38;;;1.10;;
39426;SDS011;25938;48.470;1.486;2022-08-18T00:47:16;0.93;;;0.93;;
39426;SDS011;25938;48.470;1.486;2022-08-18T00:49:43;1.85;;;0.88;;
39426;SDS011;25938;48.470;1.486;2022-08-18T00:52:11;3.05;;;1.02;;
39426;SDS011;25938;48.470;1.486;2022-08-18T00:54:38;2.38;;;1.30;;
39426;SDS011;25938;48.470;1.486;2022-08-18T00:57:05;1.52;;;0.77;;
39426;SDS011;25938;48.470;1.486;2022-08-18T01:02:02;1.10;;;0.90;;
39426;SDS011;25938;48.470;1.486;2022-08-18T01:04:30;1.00;;;0.93;;
39426;SDS011;25938;48.470;1.486;2022-08-18T01:07:01;2.00;;;1.05;;
39426;SDS011;25938;48.470;1.486;2022-08-18T01:09:30;0.98;;;0.98;;
39426;SDS011;25938;48.470;1.486;2022-08-18T01:11:56;1.75;;;0.98;;
39426;SDS011;25938;48.470;1.486;2022-08-18T01:14:22;1.13;;;1.02;;
39426;SDS011;25938;48.470;1.486;2022-08-18T01:16:49;1.67;;;1.15;;
39426;SDS011;25938;48.470;1.486;2022-08-18T01:19:34;1.58;;;1.33;;
39426;SDS011;25938;48.470;1.486;2022-08-18T01:22:35;1.10;;;0.90;;
39426;SDS011;25938;48.470;1.486;2022-08-18T01:25:02;1.70;;;1.17;;
39426;SDS011;25938;48.470;1.486;2022-08-18T01:27:47;1.52;;;0.90;;
39426;SDS011;25938;48.470;1.486;2022-08-18T01:30:15;1.08;;;0.98;;
39426;SDS011;25938;48.470;1.486;2022-08-18T01:32:42;1.02;;;0.80;;
39426;SDS011;25938;48.470;1.486;2022-08-18T01:35:12;1.65;;;1.02;;
39426;SDS011;25938;48.470;1.486;2022-08-18T01:37:39;0.55;;;0.55;;
39426;SDS011;25938;48.470;1.486;2022-08-18T01:40:11;1.27;;;0.98;;
39426;SDS011;25938;48.470;1.486;2022-08-18T01:42:37;1.17;;;0.93;;
39426;SDS011;25938;48.470;1.486;2022-08-18T01:45:04;0.95;;;0.93;;
39426;SDS011;25938;48.470;1.486;2022-08-18T01:47:32;1.17;;;1.08;;
39426;SDS011;25938;48.470;1.486;2022-08-18T01:49:58;1.08;;;0.80;;
39426;SDS011;25938;48.470;1.486;2022-08-18T01:52:25;1.55;;;1.25;;
39426;SDS011;25938;48.470;1.486;2022-08-18T01:54:51;2.03;;;1.30;;
39426;SDS011;25938;48.470;1.486;2022-08-18T01:57:18;1.45;;;0.93;;
39426;SDS011;25938;48.470;1.486;2022-08-18T01:59:45;3.47;;;1.52;;
39426;SDS011;25938;48.470;1.486;2022-08-18T02:02:11;2.65;;;1.38;;
39426;SDS011;25938;48.470;1.486;2022-08-18T02:04:39;1.40;;;0.75;;
39426;SDS011;25938;48.470;1.486;2022-08-18T02:07:06;1.23;;;1.13;;
39426;SDS011;25938;48.470;1.486;2022-08-18T02:09:34;1.10;;;1.00;;
39426;SDS011;25938;48.470;1.486;2022-08-18T02:12:01;1.45;;;1.02;;
39426;SDS011;25938;48.470;1.486;2022-08-18T02:14:28;1.38;;;0.80;;
39426;SDS011;25938;48.470;1.486;2022-08-18T02:16:55;1.40;;;1.27;;
39426;SDS011;25938;48.470;1.486;2022-08-18T02:19:21;1.40;;;1.15;;
39426;SDS011;25938;48.470;1.486;2022-08-18T02:21:47;2.40;;;1.50;;
39426;SDS011;25938;48.470;1.486;2022-08-18T02:24:13;1.83;;;1.25;;
39426;SDS011;25938;48.470;1.486;2022-08-18T02:26:39;2.67;;;1.10;;
39426;SDS011;25938;48.470;1.486;2022-08-18T02:29:07;1.38;;;1.10;;
39426;SDS011;25938;48.470;1.486;2022-08-18T02:31:33;1.20;;;1.10;;
39426;SDS011;25938;48.470;1.486;2022-08-18T02:33:59;1.92;;;1.15;;
39426;SDS011;25938;48.470;1.486;2022-08-18T02:36:26;1.42;;;1.25;;
39426;SDS011;25938;48.470;1.486;2022-08-18T02:38:52;2.38;;;1.00;;
39426;SDS011;25938;48.470;1.486;2022-08-18T02:41:18;2.45;;;1.52;;
39426;SDS011;25938;48.470;1.486;2022-08-18T02:43:46;1.50;;;1.10;;
39426;SDS011;25938;48.470;1.486;2022-08-18T02:46:12;2.30;;;1.17;;
39426;SDS011;25938;48.470;1.486;2022-08-18T02:48:39;1.55;;;1.10;;
39426;SDS011;25938;48.470;1.486;2022-08-18T02:51:15;1.65;;;1.42;;
39426;SDS011;25938;48.470;1.486;2022-08-18T02:53:43;1.77;;;1.67;;
39426;SDS011;25938;48.470;1.486;2022-08-18T02:58:46;1.88;;;1.55;;
39426;SDS011;25938;48.470;1.486;2022-08-18T03:01:12;1.88;;;1.20;;
39426;SDS011;25938;48.470;1.486;2022-08-18T03:03:38;2.78;;;1.20;;
39426;SDS011;25938;48.470;1.486;2022-08-18T03:06:04;2.20;;;1.60;;
39426;SDS011;25938;48.470;1.486;2022-08-18T03:08:30;1.98;;;1.58;;
39426;SDS011;25938;48.470;1.486;2022-08-18T03:10:56;1.98;;;1.40;;
39426;SDS011;25938;48.470;1.486;2022-08-18T03:13:23;2.35;;;1.60;;
39426;SDS011;25938;48.470;1.486;2022-08-18T03:15:49;2.90;;;1.42;;
39426;SDS011;25938;48.470;1.486;2022-08-18T03:18:15;2.88;;;1.80;;
39426;SDS011;25938;48.470;1.486;2022-08-18T03:20:41;2.53;;;1.58;;
39426;SDS011;25938;48.470;1.486;2022-08-18T03:23:08;2.03;;;1.90;;
39426;SDS011;25938;48.470;1.486;2022-08-18T03:25:34;2.83;;;1.40;;
39426;SDS011;25938;48.470;1.486;2022-08-18T03:28:01;1.58;;;1.40;;
39426;SDS011;25938;48.470;1.486;2022-08-18T03:30:28;1.70;;;1.60;;
39426;SDS011;25938;48.470;1.486;2022-08-18T03:32:54;1.80;;;1.48;;
39426;SDS011;25938;48.470;1.486;2022-08-18T03:35:21;1.60;;;1.45;;
39426;SDS011;25938;48.470;1.486;2022-08-18T03:37:47;1.65;;;1.30;;
39426;SDS011;25938;48.470;1.486;2022-08-18T03:40:13;1.77;;;1.23;;
39426;SDS011;25938;48.470;1.486;2022-08-18T03:42:39;1.33;;;1.23;;
39426;SDS011;25938;48.470;1.486;2022-08-18T03:45:06;2.10;;;1.60;;
39426;SDS011;25938;48.470;1.486;2022-08-18T03:47:32;1.83;;;1.38;;
39426;SDS011;25938;48.470;1.486;2022-08-18T03:49:58;1.52;;;1.08;;
39426;SDS011;25938;48.470;1.486;2022-08-18T03:52:24;1.25;;;1.15;;
39426;SDS011;25938;48.470;1.486;2022-08-18T03:54:50;1.30;;;1.00;;
39426;SDS011;25938;48.470;1.486;2022-08-18T03:57:18;1.90;;;1.60;;
39426;SDS011;25938;48.470;1.486;2022-08-18T03:59:44;2.60;;;1.30;;
39426;SDS011;25938;48.470;1.486;2022-08-18T04:02:10;1.70;;;1.27;;
39426;SDS011;25938;48.470;1.486;2022-08-18T04:04:37;0.98;;;0.90;;
39426;SDS011;25938;48.470;1.486;2022-08-18T04:07:07;2.20;;;1.50;;
39426;SDS011;25938;48.470;1.486;2022-08-18T04:09:33;1.50;;;1.40;;
39426;SDS011;25938;48.470;1.486;2022-08-18T04:12:05;1.73;;;1.40;;
39426;SDS011;25938;48.470;1.486;2022-08-18T04:14:36;2.05;;;1.10;;
39426;SDS011;25938;48.470;1.486;2022-08-18T04:17:03;2.78;;;1.90;;
39426;SDS011;25938;48.470;1.486;2022-08-18T04:19:29;3.33;;;1.42;;
39426;SDS011;25938;48.470;1.486;2022-08-18T04:21:58;2.28;;;2.08;;
39426;SDS011;25938;48.470;1.486;2022-08-18T04:24:25;3.70;;;2.17;;
39426;SDS011;25938;48.470;1.486;2022-08-18T04:26:51;3.28;;;2.78;;
39426;SDS011;25938;48.470;1.486;2022-08-18T04:29:18;3.03;;;2.42;;
39426;SDS011;25938;48.470;1.486;2022-08-18T04:31:45;2.78;;;2.00;;
39426;SDS011;25938;48.470;1.486;2022-08-18T04:34:11;3.75;;;2.78;;
39426;SDS011;25938;48.470;1.486;2022-08-18T04:36:37;2.88;;;2.47;;
39426;SDS011;25938;48.470;1.486;2022-08-18T04:39:04;2.83;;;2.28;;
39426;SDS011;25938;48.470;1.486;2022-08-18T04:41:31;3.42;;;2.50;;
39426;SDS011;25938;48.470;1.486;2022-08-18T04:43:57;3.28;;;2.28;;
39426;SDS011;25938;48.470;1.486;2022-08-18T04:46:24;5.47;;;3.40;;
39426;SDS011;25938;48.470;1.486;2022-08-18T04:48:51;4.78;;;2.47;;
39426;SDS011;25938;48.470;1.486;2022-08-18T04:51:22;2.55;;;2.08;;
39426;SDS011;25938;48.470;1.486;2022-08-18T04:53:48;4.40;;;3.80;;
39426;SDS011;25938;48.470;1.486;2022-08-18T04:56:22;3.05;;;2.72;;
39426;SDS011;25938;48.470;1.486;2022-08-18T04:58:55;3.42;;;2.92;;
39426;SDS011;25938;48.470;1.486;2022-08-18T05:01:23;3.55;;;2.53;;
39426;SDS011;25938;48.470;1.486;2022-08-18T05:03:49;4.22;;;3.10;;
39426;SDS011;25938;48.470;1.486;2022-08-18T05:06:16;4.22;;;2.90;;
39426;SDS011;25938;48.470;1.486;2022-08-18T05:08:42;4.68;;;3.38;;
39426;SDS011;25938;48.470;1.486;2022-08-18T05:11:08;4.13;;;3.28;;
39426;SDS011;25938;48.470;1.486;2022-08-18T05:13:34;4.78;;;2.97;;
39426;SDS011;25938;48.470;1.486;2022-08-18T05:16:01;6.10;;;3.28;;
39426;SDS011;25938;48.470;1.486;2022-08-18T05:18:31;5.85;;;3.38;;
39426;SDS011;25938;48.470;1.486;2022-08-18T05:20:57;6.15;;;3.45;;
39426;SDS011;25938;48.470;1.486;2022-08-18T05:23:25;4.38;;;3.30;;
39426;SDS011;25938;48.470;1.486;2022-08-18T05:25:58;4.93;;;2.90;;
39426;SDS011;25938;48.470;1.486;2022-08-18T05:28:27;4.80;;;3.30;;
39426;SDS011;25938;48.470;1.486;2022-08-18T05:30:53;5.18;;;2.80;;
39426;SDS011;25938;48.470;1.486;2022-08-18T05:33:19;4.55;;;3.33;;
39426;SDS011;25938;48.470;1.486;2022-08-18T05:35:46;5.57;;;3.78;;
39426;SDS011;25938;48.470;1.486;2022-08-18T05:40:43;5.28;;;4.07;;
39426;SDS011;25938;48.470;1.486;2022-08-18T05:43:13;5.47;;;3.83;;
39426;SDS011;25938;48.470;1.486;2022-08-18T05:45:41;5.85;;;3.83;;
39426;SDS011;25938;48.470;1.486;2022-08-18T05:48:08;5.07;;;3.85;;
39426;SDS011;25938;48.470;1.486;2022-08-18T05:50:34;5.18;;;3.92;;
39426;SDS011;25938;48.470;1.486;2022-08-18T05:53:08;5.65;;;3.58;;
39426;SDS011;25938;48.470;1.486;2022-08-18T05:55:38;6.88;;;3.80;;
39426;SDS011;25938;48.470;1.486;2022-08-18T05:58:25;7.07;;;3.45;;
39426;SDS011;25938;48.470;1.486;2022-08-18T06:00:54;7.15;;;3.33;;
39426;SDS011;25938;48.470;1.486;2022-08-18T06:03:24;5.05;;;3.47;;
39426;SDS011;25938;48.470;1.486;2022-08-18T06:05:52;4.28;;;2.78;;
39426;SDS011;25938;48.470;1.486;2022-08-18T06:08:21;4.00;;;2.60;;
39426;SDS011;25938;48.470;1.486;2022-08-18T06:10:49;5.18;;;2.83;;
39426;SDS011;25938;48.470;1.486;2022-08-18T06:13:15;5.93;;;3.33;;
39426;SDS011;25938;48.470;1.486;2022-08-18T06:31:19;4.55;;;3.20;;
39426;SDS011;25938;48.470;1.486;2022-08-18T06:33:51;3.38;;;3.08;;
39426;SDS011;25938;48.470;1.486;2022-08-18T06:36:21;4.78;;;3.45;;
39426;SDS011;25938;48.470;1.486;2022-08-18T06:38:54;6.05;;;3.35;;
39426;SDS011;25938;48.470;1.486;2022-08-18T06:41:34;3.95;;;3.25;;
39426;SDS011;25938;48.470;1.486;2022-08-18T06:44:08;4.72;;;3.85;;
39426;SDS011;25938;48.470;1.486;2022-08-18T06:46:43;5.10;;;3.70;;
39426;SDS011;25938;48.470;1.486;2022-08-18T06:49:11;7.72;;;5.07;;
39426;SDS011;25938;48.470;1.486;2022-08-18T06:51:39;5.57;;;3.80;;
39426;SDS011;25938;48.470;1.486;2022-08-18T06:54:06;6.20;;;4.78;;
39426;SDS011;25938;48.470;1.486;2022-08-18T07:01:40;6.75;;;5.32;;
39426;SDS011;25938;48.470;1.486;2022-08-18T07:04:07;6.50;;;4.97;;
39426;SDS011;25938;48.470;1.486;2022-08-18T07:06:33;7.47;;;5.70;;
39426;SDS011;25938;48.470;1.486;2022-08-18T07:09:19;7.70;;;5.78;;
39426;SDS011;25938;48.470;1.486;2022-08-18T07:12:05;8.93;;;5.80;;
39426;SDS011;25938;48.470;1.486;2022-08-18T07:14:40;5.97;;;5.40;;
39426;SDS011;25938;48.470;1.486;2022-08-18T07:17:08;7.80;;;5.70;;
39426;SDS011;25938;48.470;1.486;2022-08-18T07:19:34;8.88;;;5.97;;
39426;SDS011;25938;48.470;1.486;2022-08-18T07:24:27;6.85;;;5.88;;
39426;SDS011;25938;48.470;1.486;2022-08-18T07:29:27;7.35;;;5.82;;
39426;SDS011;25938;48.470;1.486;2022-08-18T07:31:54;4.45;;;3.47;;
39426;SDS011;25938;48.470;1.486;2022-08-18T07:34:25;5.90;;;4.43;;
39426;SDS011;25938;48.470;1.486;2022-08-18T07:39:25;7.35;;;4.70;;
39426;SDS011;25938;48.470;1.486;2022-08-18T07:42:02;6.35;;;5.25;;
39426;SDS011;25938;48.470;1.486;2022-08-18T07:44:41;7.13;;;5.13;;
39426;SDS011;25938;48.470;1.486;2022-08-18T07:47:13;6.93;;;5.72;;
39426;SDS011;25938;48.470;1.486;2022-08-18T07:49:41;6.55;;;5.10;;
39426;SDS011;25938;48.470;1.486;2022-08-18T07:52:23;8.40;;;5.78;;
39426;SDS011;25938;48.470;1.486;2022-08-18T07:54:58;7.97;;;5.82;;
39426;SDS011;25938;48.470;1.486;2022-08-18T08:02:27;6.72;;;5.03;;
39426;SDS011;25938;48.470;1.486;2022-08-18T08:07:49;5.88;;;4.85;;
39426;SDS011;25938;48.470;1.486;2022-08-18T08:10:32;7.72;;;5.82;;
39426;SDS011;25938;48.470;1.486;2022-08-18T08:15:34;5.72;;;5.20;;
39426;SDS011;25938;48.470;1.486;2022-08-18T08:25:46;6.53;;;4.85;;
39426;SDS011;25938;48.470;1.486;2022-08-18T08:28:19;2.95;;;2.30;;
39426;SDS011;25938;48.470;1.486;2022-08-18T08:36:02;1.98;;;1.83;;
39426;SDS011;25938;48.470;1.486;2022-08-18T08:41:00;5.22;;;4.72;;
39426;SDS011;25938;48.470;1.486;2022-08-18T08:43:32;6.18;;;4.72;;
39426;SDS011;25938;48.470;1.486;2022-08-18T08:46:02;6.35;;;4.95;;
39426;SDS011;25938;48.470;1.486;2022-08-18T08:48:30;6.88;;;4.68;;
39426;SDS011;25938;48.470;1.486;2022-08-18T08:50:59;3.42;;;2.47;;
39426;SDS011;25938;48.470;1.486;2022-08-18T08:53:27;4.57;;;4.07;;
39426;SDS011;25938;48.470;1.486;2022-08-18T08:55:55;4.80;;;3.42;;
39426;SDS011;25938;48.470;1.486;2022-08-18T08:58:27;4.85;;;4.35;;
39426;SDS011;25938;48.470;1.486;2022-08-18T09:00:54;8.05;;;5.45;;
39426;SDS011;25938;48.470;1.486;2022-08-18T09:05:56;2.88;;;2.67;;
39426;SDS011;25938;48.470;1.486;2022-08-18T09:16:22;6.93;;;4.40;;
39426;SDS011;25938;48.470;1.486;2022-08-18T09:21:53;5.30;;;3.88;;
39426;SDS011;25938;48.470;1.486;2022-08-18T09:37:22;5.03;;;4.35;;
39426;SDS011;25938;48.470;1.486;2022-08-18T09:40:02;3.80;;;3.50;;
39426;SDS011;25938;48.470;1.486;2022-08-18T09:42:53;1.80;;;1.70;;
39426;SDS011;25938;48.470;1.486;2022-08-18T09:47:58;4.53;;;3.65;;
39426;SDS011;25938;48.470;1.486;2022-08-18T09:52:51;1.60;;;1.42;;
39426;SDS011;25938;48.470;1.486;2022-08-18T09:57:43;2.95;;;2.45;;
39426;SDS011;25938;48.470;1.486;2022-08-18T10:07:44;4.15;;;3.72;;
39426;SDS011;25938;48.470;1.486;2022-08-18T10:18:27;2.92;;;2.63;;
39426;SDS011;25938;48.470;1.486;2022-08-18T10:20:59;4.47;;;4.03;;
39426;SDS011;25938;48.470;1.486;2022-08-18T10:31:28;1.80;;;1.70;;
39426;SDS011;25938;48.470;1.486;2022-08-18T10:34:07;3.33;;;3.10;;
39426;SDS011;25938;48.470;1.486;2022-08-18T10:36:43;4.15;;;3.13;;
39426;SDS011;25938;48.470;1.486;2022-08-18T10:39:20;2.65;;;2.45;;
39426;SDS011;25938;48.470;1.486;2022-08-18T10:41:53;5.22;;;3.65;;
39426;SDS011;25938;48.470;1.486;2022-08-18T10:44:21;3.92;;;3.53;;
39426;SDS011;25938;48.470;1.486;2022-08-18T10:46:47;3.30;;;3.00;;
39426;SDS011;25938;48.470;1.486;2022-08-18T10:49:15;4.28;;;3.45;;
39426;SDS011;25938;48.470;1.486;2022-08-18T10:54:17;4.43;;;3.40;;
39426;SDS011;25938;48.470;1.486;2022-08-18T10:59:51;1.23;;;1.13;;
39426;SDS011;25938;48.470;1.486;2022-08-18T11:04:56;3.25;;;3.05;;
39426;SDS011;25938;48.470;1.486;2022-08-18T11:07:24;3.05;;;2.67;;
39426;SDS011;25938;48.470;1.486;2022-08-18T11:09:51;3.10;;;2.80;;
39426;SDS011;25938;48.470;1.486;2022-08-18T11:15:07;2.08;;;1.98;;
39426;SDS011;25938;48.470;1.486;2022-08-18T11:20:01;4.95;;;4.53;;
39426;SDS011;25938;48.470;1.486;2022-08-18T11:22:31;3.47;;;2.40;;
39426;SDS011;25938;48.470;1.486;2022-08-18T11:24:58;2.03;;;1.92;;
39426;SDS011;25938;48.470;1.486;2022-08-18T11:27:25;1.33;;;1.23;;
39426;SDS011;25938;48.470;1.486;2022-08-18T11:29:52;5.50;;;3.22;;
39426;SDS011;25938;48.470;1.486;2022-08-18T11:32:27;4.38;;;2.67;;
39426;SDS011;25938;48.470;1.486;2022-08-18T11:39:58;3.83;;;3.42;;
39426;SDS011;25938;48.470;1.486;2022-08-18T11:42:32;4.90;;;2.80;;
39426;SDS011;25938;48.470;1.486;2022-08-18T11:45:06;4.57;;;3.60;;
39426;SDS011;25938;48.470;1.486;2022-08-18T11:47:35;3.75;;;2.90;;
39426;SDS011;25938;48.470;1.486;2022-08-18T11:50:10;1.83;;;1.65;;
39426;SDS011;25938;48.470;1.486;2022-08-18T11:52:47;1.45;;;1.35;;
39426;SDS011;25938;48.470;1.486;2022-08-18T11:55:32;1.50;;;1.40;;
39426;SDS011;25938;48.470;1.486;2022-08-18T11:57:58;1.73;;;1.50;;
39426;SDS011;25938;48.470;1.486;2022-08-18T12:00:38;5.32;;;3.58;;
39426;SDS011;25938;48.470;1.486;2022-08-18T12:03:11;3.67;;;2.20;;
39426;SDS011;25938;48.470;1.486;2022-08-18T12:05:45;3.85;;;2.80;;
39426;SDS011;25938;48.470;1.486;2022-08-18T12:08:16;1.55;;;1.25;;
39426;SDS011;25938;48.470;1.486;2022-08-18T12:10:43;2.53;;;1.90;;
39426;SDS011;25938;48.470;1.486;2022-08-18T12:13:09;3.38;;;3.08;;
39426;SDS011;25938;48.470;1.486;2022-08-18T12:15:35;3.25;;;3.05;;
39426;SDS011;25938;48.470;1.486;2022-08-18T12:18:02;2.28;;;1.75;;
39426;SDS011;25938;48.470;1.486;2022-08-18T12:20:28;2.28;;;2.08;;
39426;SDS011;25938;48.470;1.486;2022-08-18T12:22:55;1.48;;;1.38;;
39426;SDS011;25938;48.470;1.486;2022-08-18T12:25:21;3.53;;;3.03;;
39426;SDS011;25938;48.470;1.486;2022-08-18T12:27:47;2.85;;;2.50;;
39426;SDS011;25938;48.470;1.486;2022-08-18T12:30:13;2.10;;;1.85;;
39426;SDS011;25938;48.470;1.486;2022-08-18T12:32:40;2.35;;;2.15;;
39426;SDS011;25938;48.470;1.486;2022-08-18T12:35:07;3.28;;;2.42;;
39426;SDS011;25938;48.470;1.486;2022-08-18T12:37:35;1.58;;;1.48;;
39426;SDS011;25938;48.470;1.486;2022-08-18T12:40:03;1.67;;;1.58;;
39426;SDS011;25938;48.470;1.486;2022-08-18T12:42:29;2.53;;;2.30;;
39426;SDS011;25938;48.470;1.486;2022-08-18T12:44:55;2.50;;;2.30;;
39426;SDS011;25938;48.470;1.486;2022-08-18T12:47:23;2.17;;;1.98;;
39426;SDS011;25938;48.470;1.486;2022-08-18T12:49:49;3.50;;;3.17;;
39426;SDS011;25938;48.470;1.486;2022-08-18T12:52:16;3.38;;;2.45;;
39426;SDS011;25938;48.470;1.486;2022-08-18T12:54:42;2.83;;;1.95;;
39426;SDS011;25938;48.470;1.486;2022-08-18T12:57:12;3.25;;;1.85;;
39426;SDS011;25938;48.470;1.486;2022-08-18T12:59:41;2.70;;;2.33;;
39426;SDS011;25938;48.470;1.486;2022-08-18T13:02:07;3.25;;;2.33;;
39426;SDS011;25938;48.470;1.486;2022-08-18T13:04:35;2.63;;;1.60;;
39426;SDS011;25938;48.470;1.486;2022-08-18T13:07:01;2.10;;;1.90;;
39426;SDS011;25938;48.470;1.486;2022-08-18T13:09:29;2.72;;;2.25;;
39426;SDS011;25938;48.470;1.486;2022-08-18T13:11:56;3.45;;;2.53;;
39426;SDS011;25938;48.470;1.486;2022-08-18T13:14:22;3.42;;;3.13;;
39426;SDS011;25938;48.470;1.486;2022-08-18T13:16:48;4.10;;;2.97;;
39426;SDS011;25938;48.470;1.486;2022-08-18T13:19:15;1.77;;;1.52;;
39426;SDS011;25938;48.470;1.486;2022-08-18T13:21:41;1.80;;;1.42;;
39426;SDS011;25938;48.470;1.486;2022-08-18T13:24:08;2.90;;;2.45;;
39426;SDS011;25938;48.470;1.486;2022-08-18T13:26:37;2.10;;;1.98;;
39426;SDS011;25938;48.470;1.486;2022-08-18T13:29:03;2.50;;;2.25;;
39426;SDS011;25938;48.470;1.486;2022-08-18T13:31:30;3.25;;;2.60;;
39426;SDS011;25938;48.470;1.486;2022-08-18T13:33:56;2.88;;;2.47;;
39426;SDS011;25938;48.470;1.486;2022-08-18T13:36:23;3.47;;;3.08;;
39426;SDS011;25938;48.470;1.486;2022-08-18T13:38:50;2.28;;;1.70;;
39426;SDS011;25938;48.470;1.486;2022-08-18T13:41:17;2.90;;;2.13;;
39426;SDS011;25938;48.470;1.486;2022-08-18T13:43:44;2.47;;;1.33;;
39426;SDS011;25938;48.470;1.486;2022-08-18T13:46:13;1.98;;;1.88;;
39426;SDS011;25938;48.470;1.486;2022-08-18T13:48:40;3.17;;;2.38;;
39426;SDS011;25938;48.470;1.486;2022-08-18T13:51:07;2.20;;;1.63;;
39426;SDS011;25938;48.470;1.486;2022-08-18T13:53:34;1.30;;;1.20;;
39426;SDS011;25938;48.470;1.486;2022-08-18T13:56:01;2.42;;;2.13;;
39426;SDS011;25938;48.470;1.486;2022-08-18T13:58:28;1.85;;;1.52;;
39426;SDS011;25938;48.470;1.486;2022-08-18T14:00:55;2.60;;;1.40;;
39426;SDS011;25938;48.470;1.486;2022-08-18T14:03:22;1.20;;;1.10;;
39426;SDS011;25938;48.470;1.486;2022-08-18T14:05:48;2.35;;;2.15;;
39426;SDS011;25938;48.470;1.486;2022-08-18T14:08:14;1.67;;;1.38;;
39426;SDS011;25938;48.470;1.486;2022-08-18T14:10:41;1.70;;;1.60;;
39426;SDS011;25938;48.470;1.486;2022-08-18T14:13:07;1.55;;;1.45;;
39426;SDS011;25938;48.470;1.486;2022-08-18T14:15:33;1.40;;;1.30;;
39426;SDS011;25938;48.470;1.486;2022-08-18T14:18:02;2.17;;;1.73;;
39426;SDS011;25938;48.470;1.486;2022-08-18T14:20:29;1.75;;;1.33;;
39426;SDS011;25938;48.470;1.486;2022-08-18T14:23:13;1.42;;;1.27;;
39426;SDS011;25938;48.470;1.486;2022-08-18T14:25:58;2.53;;;1.45;;
39426;SDS011;25938;48.470;1.486;2022-08-18T14:28:42;3.35;;;1.92;;
39426;SDS011;25938;48.470;1.486;2022-08-18T14:31:09;1.42;;;1.33;;
39426;SDS011;25938;48.470;1.486;2022-08-18T14:33:35;1.90;;;1.70;;
39426;SDS011;25938;48.470;1.486;2022-08-18T14:36:02;1.58;;;1.45;;
39426;SDS011;25938;48.470;1.486;2022-08-18T14:38:29;1.70;;;1.30;;
39426;SDS011;25938;48.470;1.486;2022-08-18T14:40:57;3.30;;;1.42;;
39426;SDS011;25938;48.470;1.486;2022-08-18T14:43:24;1.70;;;1.60;;
39426;SDS011;25938;48.470;1.486;2022-08-18T14:45:50;2.78;;;1.45;;
39426;SDS011;25938;48.470;1.486;2022-08-18T14:48:18;1.65;;;1.48;;
39426;SDS011;25938;48.470;1.486;2022-08-18T14:50:46;2.45;;;1.80;;
39426;SDS011;25938;48.470;1.486;2022-08-18T14:53:14;2.00;;;1.77;;
39426;SDS011;25938;48.470;1.486;2022-08-18T14:55:40;2.13;;;1.40;;
39426;SDS011;25938;48.470;1.486;2022-08-18T14:58:07;3.83;;;2.05;;
39426;SDS011;25938;48.470;1.486;2022-08-18T15:00:33;2.67;;;2.47;;
39426;SDS011;25938;48.470;1.486;2022-08-18T15:03:00;2.78;;;2.08;;
39426;SDS011;25938;48.470;1.486;2022-08-18T15:05:26;1.30;;;1.20;;
39426;SDS011;25938;48.470;1.486;2022-08-18T15:07:56;2.80;;;1.55;;
39426;SDS011;25938;48.470;1.486;2022-08-18T15:10:22;1.88;;;1.77;;
39426;SDS011;25938;48.470;1.486;2022-08-18T15:12:49;2.72;;;1.50;;
39426;SDS011;25938;48.470;1.486;2022-08-18T15:15:15;1.83;;;1.58;;
39426;SDS011;25938;48.470;1.486;2022-08-18T15:17:41;2.72;;;1.58;;
39426;SDS011;25938;48.470;1.486;2022-08-18T15:20:08;2.55;;;2.05;;
39426;SDS011;25938;48.470;1.486;2022-08-18T15:22:39;1.50;;;1.27;;
39426;SDS011;25938;48.470;1.486;2022-08-18T15:25:24;2.30;;;2.10;;
39426;SDS011;25938;48.470;1.486;2022-08-18T15:28:19;1.40;;;1.25;;
39426;SDS011;25938;48.470;1.486;2022-08-18T15:30:46;5.03;;;2.63;;
39426;SDS011;25938;48.470;1.486;2022-08-18T15:33:13;4.35;;;2.35;;
39426;SDS011;25938;48.470;1.486;2022-08-18T15:35:43;3.00;;;2.17;;
39426;SDS011;25938;48.470;1.486;2022-08-18T15:38:12;1.88;;;1.73;;
39426;SDS011;25938;48.470;1.486;2022-08-18T15:40:46;1.67;;;1.55;;
39426;SDS011;25938;48.470;1.486;2022-08-18T15:43:13;1.10;;;1.10;;
39426;SDS011;25938;48.470;1.486;2022-08-18T15:45:39;2.67;;;1.88;;
39426;SDS011;25938;48.470;1.486;2022-08-18T15:48:08;2.03;;;1.83;;
39426;SDS011;25938;48.470;1.486;2022-08-18T15:50:34;1.52;;;1.27;;
39426;SDS011;25938;48.470;1.486;2022-08-18T15:53:02;1.65;;;1.42;;
39426;SDS011;25938;48.470;1.486;2022-08-18T15:55:30;1.73;;;1.63;;
39426;SDS011;25938;48.470;1.486;2022-08-18T15:57:56;1.40;;;1.30;;
39426;SDS011;25938;48.470;1.486;2022-08-18T16:00:23;1.92;;;1.75;;
39426;SDS011;25938;48.470;1.486;2022-08-18T16:02:50;3.25;;;1.90;;
39426;SDS011;25938;48.470;1.486;2022-08-18T16:05:18;1.40;;;1.30;;
39426;SDS011;25938;48.470;1.486;2022-08-18T16:07:47;1.95;;;1.42;;
39426;SDS011;25938;48.470;1.486;2022-08-18T16:10:17;3.35;;;2.05;;
39426;SDS011;25938;48.470;1.486;2022-08-18T16:12:45;3.17;;;1.98;;
39426;SDS011;25938;48.470;1.486;2022-08-18T16:15:12;1.13;;;1.02;;
39426;SDS011;25938;48.470;1.486;2022-08-18T16:17:39;2.78;;;1.88;;
39426;SDS011;25938;48.470;1.486;2022-08-18T16:20:05;2.20;;;2.00;;
39426;SDS011;25938;48.470;1.486;2022-08-18T16:22:33;1.25;;;1.15;;
39426;SDS011;25938;48.470;1.486;2022-08-18T16:24:59;3.13;;;1.85;;
39426;SDS011;25938;48.470;1.486;2022-08-18T16:27:27;3.53;;;1.58;;
39426;SDS011;25938;48.470;1.486;2022-08-18T16:29:53;1.50;;;1.15;;
39426;SDS011;25938;48.470;1.486;2022-08-18T16:32:20;1.58;;;1.27;;
39426;SDS011;25938;48.470;1.486;2022-08-18T16:34:46;1.77;;;1.40;;
39426;SDS011;25938;48.470;1.486;2022-08-18T16:37:13;2.08;;;1.45;;
39426;SDS011;25938;48.470;1.486;2022-08-18T16:39:39;3.03;;;1.90;;
39426;SDS011;25938;48.470;1.486;2022-08-18T16:42:05;1.10;;;1.00;;
39426;SDS011;25938;48.470;1.486;2022-08-18T16:44:31;1.67;;;1.48;;
39426;SDS011;25938;48.470;1.486;2022-08-18T16:46:58;1.08;;;0.98;;
39426;SDS011;25938;48.470;1.486;2022-08-18T16:49:25;1.45;;;1.25;;
39426;SDS011;25938;48.470;1.486;2022-08-18T16:51:52;1.38;;;1.27;;
39426;SDS011;25938;48.470;1.486;2022-08-18T16:54:18;1.50;;;1.40;;
39426;SDS011;25938;48.470;1.486;2022-08-18T16:56:44;1.85;;;1.75;;
39426;SDS011;25938;48.470;1.486;2022-08-18T16:59:10;3.60;;;1.85;;
39426;SDS011;25938;48.470;1.486;2022-08-18T17:01:54;1.10;;;1.08;;
39426;SDS011;25938;48.470;1.486;2022-08-18T17:04:39;2.13;;;1.90;;
39426;SDS011;25938;48.470;1.486;2022-08-18T17:07:05;2.15;;;1.33;;
39426;SDS011;25938;48.470;1.486;2022-08-18T17:09:32;1.55;;;1.40;;
39426;SDS011;25938;48.470;1.486;2022-08-18T17:11:59;1.58;;;1.48;;
39426;SDS011;25938;48.470;1.486;2022-08-18T17:14:26;1.20;;;1.02;;